KEVU

Northwest Missouri Regional Airport

Maryville, Missouri, USA
METAR KEVU 191455Z AUTO 20011KT 10SM CLR 01/M10 A2984 RMK AO2
Observed Flight Rules
Jan-19 @ 14:55 UTC (33 minutes ago) Visual Flight Rules
Wind Visibility Clouds
200° at 11 knots 10 miles
  • Clear skies
Temperatures Readings
Current 1°C / 34°F
Dewpoint -10°C / 14°F
Humidity 44%
Altimeter 29.84" Hg
Pressure 1010 hPa
Elevation 349
METAR KEVU 191455Z AUTO 20011KT 10SM CLR 01/M10 A2984 RMK AO2
Observed Flight Rules
Jan-19 @ 14:55 UTC
(33 minutes ago)
VFR
Wind Visibility
200° at 11 knots 10 miles
Clouds
  • Clear skies
Temperature Dewpoint
1°C / 34°F -10°C / 14°F
Humidity Altimeter Pressure
44% 29.84" Hg 1010 hPa